BIEG

Egilsstaðir Airport

Egilsstaðir, Iceland
METAR BIEG 241100Z 19008KT 9999 FEW040 BKN060 07/M02 Q1011
Observed Flight Rules
Sep-24 @ 11:00 UTC (32 minutes ago) Visual Flight Rules
Wind Visibility Clouds
190° at 8 knots 10,000+ meters
  • Few at 4,000' AGL
  • Broken at 6,000' AGL
Temperatures Readings
Current 7°C / 45°F
Dewpoint -2°C / 28°F
Humidity 53%
Altimeter 29.85" Hg
Pressure 1011 hPa
Elevation 38
METAR BIEG 241100Z 19008KT 9999 FEW040 BKN060 07/M02 Q1011
Observed Flight Rules
Sep-24 @ 11:00 UTC
(32 minutes ago)
VFR
Wind Visibility
190° at 8 knots 10,000+ meters
Clouds
  • Few at 4,000' AGL
  • Broken at 6,000' AGL
Temperature Dewpoint
7°C / 45°F -2°C / 28°F
Humidity Altimeter Pressure
53% 29.85" Hg 1011 hPa